Aérodrome :
LOGIN :

S'inscrire | Disclaimer

   EN    FR    IT 

 










Légende :    VFR   VFR Marginal   IFR   IFR Intensif   IFR Très Intensif
Visi : 
Plafond : 
>= 8 km
>= 3000ft
5 à 8 km
1000 à 3000 ft
1500m à 5 km
500 à 1000 ft
800 à 1500m
200 à 500 ft
< 800m
< 200 ft
Symboles :   Orages  Brouillard  Fortes neiges  Fortes précipitations  Vent > 20 kt
SIGMETs :   Divers  Orages  Givrage  Turbulence  Onde Orograph.  Cendres Volcan.






- Altitude de l'aérodrome : 1017 ft


LFSL - Brive Souillac

DERNIER METAR :
  • 230130Z AUTO VRB02KT 9999 RA BKN027/// OVC034/// ///TCU 11/10 Q0986

METARs EXPIRÉS :
  • 230100Z AUTO 24004KT 210V270 9999 -RA OVC031 12/10 Q0986
  • 230030Z AUTO VRB03KT 9999 FEW035 BKN094 OVC130 12/09 Q0986
  • 230000Z AUTO 13003KT CAVOK 13/09 Q0986
  • 222330Z AUTO 12008KT 090V150 CAVOK 13/09 Q0986
  • 222300Z AUTO 13009KT 100V160 CAVOK 13/09 Q0987

TAF TAF LFSL
Valide du 22 à 18h jusqu'au 23 à 03h UTC


221700Z 2218/2303 14015G28KT 9999 SCT020 BKN090
BECMG 2223/2301 15005KT
TEMPO 2221/2303 4000 RA BKN015 FEW030TCU OVC050
PROB40
TEMPO 2301/2303 2000 +RA BKN005 OVC020 FEW030CB



MET'MAP, la Météo Aéronautique d'un coup d'oeil ! - Copyright ORBIFLY Décembre 2007 - Disclaimer

ORBIFLY MET'MAP TEAM :

Programmation & Développement : Alexandra Zaïnal
Conception & Développement : Baudouin d'Aumeries
Co-Programmation & Développement : Marc-Olivier Méhu
Soutien technique & logistique : Manuel Goepfert

Contact : metmap@orbifly.com




SOURCES & CREDITS :

   NOAA